Time;durP1;ratioP1;P1;durP2;ratioP2;P2;SDS_P1;SDS_P2;PMS_P1;PMS_P2;Temp;Humidity;BMP_temperature;BMP_pressure;BME280_temperature;BME280_humidity;BME280_pressure;Samples;Min_cycle;Max_cycle;Signal;HPM_P1;HPM_P2
2022/12/08 00:04:19;;;;;;;;;;;2.90;99.90;;;1.74;100.00;95179.34;10506865;28;1989;-65
2022/12/08 00:09:21;;;;;;;;;;;2.80;99.90;;;1.65;100.00;95173.59;10515537;28;1914;-64
2022/12/08 00:14:24;;;;;;;;;;;2.80;99.90;;;1.63;100.00;95179.13;10517749;28;2285;-66
2022/12/08 00:19:27;;;;;;;;;;;2.80;99.90;;;1.70;100.00;95167.59;10517457;28;2077;-66
2022/12/08 00:24:29;;;;;;;;;;;2.80;99.90;;;1.65;100.00;95175.44;10518735;28;2024;-66
2022/12/08 00:29:32;;;;;;;;;;;2.80;99.90;;;1.60;100.00;95160.25;10523618;28;2072;-66
2022/12/08 00:34:35;;;;;;;;;;;2.70;99.90;;;1.66;100.00;95158.53;10513640;28;1978;-65
2022/12/08 00:39:38;;;;;;;;;;;2.70;99.90;;;1.63;100.00;95157.13;10514821;28;1950;-65
2022/12/08 00:44:40;;;;;;;;;;;2.70;99.90;;;1.72;100.00;95149.63;10513206;28;2149;-65
2022/12/08 00:49:53;;;;;;;;;;;2.70;99.90;;;1.74;100.00;95152.88;10509826;28;2020;-64
2022/12/08 00:54:56;;;;;;;;;;;2.80;99.90;;;1.76;100.00;95150.78;10513576;28;1986;-67
2022/12/08 00:59:58;;;;;;;;;;;2.80;99.90;;;1.82;100.00;95144.53;10517307;28;2078;-68
2022/12/08 01:05:01;;;;;;;;;;;2.80;99.90;;;1.82;100.00;95142.69;10509950;28;2137;-65
2022/12/08 01:10:04;;;;;;;;;;;2.90;99.90;;;1.88;100.00;95149.72;10514990;28;1962;-67
2022/12/08 01:15:07;;;;;;;;;;;2.90;99.90;;;1.90;100.00;95141.53;10501782;28;1954;-66
2022/12/08 01:20:10;;;;;;;;;;;3.00;99.90;;;1.79;100.00;95150.31;10514656;28;1975;-68
2022/12/08 01:25:13;;;;;;;;;;;2.90;99.90;;;1.83;100.00;95151.44;10514806;28;1919;-65
2022/12/08 01:30:17;;;;;;;;;;;2.90;99.90;;;1.79;100.00;95148.47;10518810;28;1984;-67
2022/12/08 01:35:19;;;;;;;;;;;2.90;99.90;;;1.73;100.00;95145.97;10515915;28;1966;-68
2022/12/08 01:40:22;;;;;;;;;;;2.80;99.90;;;1.78;100.00;95148.69;10507710;28;1979;-65
2022/12/08 01:45:25;;;;;;;;;;;2.80;99.90;;;1.73;100.00;95140.66;10505434;28;2061;-66
2022/12/08 01:50:28;;;;;;;;;;;2.80;99.90;;;1.63;100.00;95139.38;10509665;28;1984;-66
2022/12/08 01:55:30;;;;;;;;;;;2.70;99.90;;;1.65;100.00;95133.03;10515793;28;1978;-69
2022/12/08 02:00:37;;;;;;;;;;;2.70;99.90;;;1.57;100.00;95119.13;10494328;28;2049;-74
2022/12/08 02:05:40;;;;;;;;;;;2.60;99.90;;;1.56;100.00;95128.13;10501759;28;1999;-67
2022/12/08 02:10:48;;;;;;;;;;;2.60;99.90;;;1.48;100.00;95117.09;10503377;28;1981;-66
2022/12/08 02:15:50;;;;;;;;;;;2.60;99.90;;;1.41;100.00;95108.47;10525111;28;1911;-66
2022/12/08 02:20:54;;;;;;;;;;;2.50;99.90;;;1.43;100.00;95106.38;10512310;28;1998;-66
2022/12/08 02:25:56;;;;;;;;;;;2.50;99.90;;;1.42;100.00;95097.63;10503283;28;1986;-66
2022/12/08 02:30:59;;;;;;;;;;;2.50;99.90;;;1.33;100.00;95094.50;10504528;28;1974;-65
2022/12/08 02:36:02;;;;;;;;;;;2.50;99.90;;;1.33;100.00;95093.72;10507978;28;1914;-66
2022/12/08 02:41:05;;;;;;;;;;;2.50;99.90;;;1.35;100.00;95091.66;10504301;28;1966;-68
2022/12/08 02:46:08;;;;;;;;;;;2.40;99.90;;;1.37;100.00;95084.28;10509557;28;1896;-66
2022/12/08 02:51:11;;;;;;;;;;;2.70;99.90;;;1.36;100.00;95085.31;10499684;28;2143;-66
2022/12/08 02:56:14;;;;;;;;;;;2.40;99.90;;;1.32;100.00;95082.31;10503836;28;1979;-66
2022/12/08 03:01:16;;;;;;;;;;;2.40;99.90;;;1.32;100.00;95078.88;10504658;28;2069;-66
2022/12/08 03:06:19;;;;;;;;;;;2.50;99.90;;;1.32;100.00;95070.91;10509761;28;1977;-68
2022/12/08 03:11:22;;;;;;;;;;;2.40;99.90;;;1.26;100.00;95072.66;10505538;28;2037;-65
2022/12/08 03:16:25;;;;;;;;;;;2.40;99.90;;;1.17;100.00;95067.97;10507682;28;1978;-68
2022/12/08 03:21:27;;;;;;;;;;;2.30;99.90;;;1.01;100.00;95061.50;10499630;28;2070;-66
2022/12/08 03:26:30;;;;;;;;;;;2.30;99.90;;;0.99;100.00;95071.53;10514912;28;1998;-66
2022/12/08 03:31:33;;;;;;;;;;;2.20;99.90;;;0.87;100.00;95062.78;10500250;28;2451;-65
2022/12/08 03:36:38;;;;;;;;;;;2.10;99.90;;;0.81;100.00;95044.16;10510885;28;1959;-68
2022/12/08 03:41:40;;;;;;;;;;;2.20;99.90;;;0.78;100.00;95057.84;10506860;28;2013;-66
2022/12/08 03:46:43;;;;;;;;;;;2.30;99.90;;;0.74;100.00;95054.03;10510356;28;2102;-65
2022/12/08 03:51:46;;;;;;;;;;;1.90;99.90;;;0.79;100.00;95048.06;10516402;28;1986;-66
2022/12/08 03:56:53;;;;;;;;;;;1.90;99.90;;;0.78;100.00;95051.75;10509192;28;1970;-66
2022/12/08 04:01:56;;;;;;;;;;;1.90;99.90;;;0.76;100.00;95046.69;10510567;28;2038;-67
2022/12/08 04:06:59;;;;;;;;;;;1.90;99.90;;;0.79;100.00;95045.41;10507595;28;1970;-66
2022/12/08 04:12:02;;;;;;;;;;;1.90;99.90;;;0.80;100.00;95041.75;10506784;28;1986;-67
2022/12/08 04:17:04;;;;;;;;;;;1.90;99.90;;;0.80;100.00;95042.53;10507781;28;2129;-65
2022/12/08 04:22:07;;;;;;;;;;;1.90;99.90;;;0.81;100.00;95048.63;10515643;28;2117;-66
2022/12/08 04:27:11;;;;;;;;;;;1.90;99.90;;;0.93;100.00;95046.00;10509737;28;2028;-65
2022/12/08 04:32:13;;;;;;;;;;;1.90;99.90;;;0.90;100.00;95041.16;10507919;28;1965;-68
2022/12/08 04:37:16;;;;;;;;;;;1.90;99.90;;;1.00;100.00;95028.94;10512415;28;1919;-66
2022/12/08 04:42:19;;;;;;;;;;;2.00;99.90;;;1.05;100.00;95031.72;10503578;28;1930;-65
2022/12/08 04:47:22;;;;;;;;;;;2.10;99.90;;;1.08;100.00;95022.50;10514843;28;1986;-66
2022/12/08 04:52:24;;;;;;;;;;;2.10;99.90;;;1.09;100.00;95018.84;10525335;28;1982;-66
2022/12/08 04:57:27;;;;;;;;;;;2.50;99.90;;;1.13;100.00;95019.16;10503071;28;1930;-66
2022/12/08 05:02:30;;;;;;;;;;;2.10;99.90;;;1.11;100.00;95021.25;10512156;28;2015;-65
2022/12/08 05:07:33;;;;;;;;;;;2.10;99.90;;;1.16;100.00;95018.69;10516023;28;2050;-65
2022/12/08 05:12:35;;;;;;;;;;;2.20;99.90;;;1.13;100.00;95016.50;10512323;28;1954;-65
2022/12/08 05:17:38;;;;;;;;;;;2.20;99.90;;;1.18;100.00;95016.63;10516377;28;1963;-65
2022/12/08 05:22:41;;;;;;;;;;;2.20;99.90;;;1.20;100.00;95011.88;10518307;28;2007;-70
2022/12/08 05:27:43;;;;;;;;;;;2.20;99.90;;;1.27;100.00;95016.03;10531494;28;1910;-72
2022/12/08 05:32:46;;;;;;;;;;;2.30;99.90;;;1.25;100.00;95009.34;10512925;28;2129;-74
2022/12/08 05:37:49;;;;;;;;;;;2.30;99.90;;;1.22;100.00;95005.34;10506229;28;2077;-67
2022/12/08 05:42:52;;;;;;;;;;;2.30;99.90;;;1.21;100.00;94995.78;10509415;28;2047;-66
2022/12/08 05:47:55;;;;;;;;;;;2.40;99.90;;;1.32;100.00;95002.88;10505449;28;2026;-64
2022/12/08 05:52:58;;;;;;;;;;;2.30;99.90;;;1.30;100.00;95001.50;10516720;28;1976;-66
2022/12/08 05:58:01;;;;;;;;;;;2.40;99.90;;;1.31;100.00;94990.69;10512530;28;2159;-68
2022/12/08 06:03:10;;;;;;;;;;;2.40;99.90;;;1.36;100.00;94987.34;10508116;28;1926;-68
2022/12/08 06:08:13;;;;;;;;;;;2.40;99.90;;;1.29;100.00;94984.03;10512974;28;1952;-65
2022/12/08 06:13:16;;;;;;;;;;;2.40;99.90;;;1.39;100.00;94989.50;10506887;28;2105;-66
2022/12/08 06:18:18;;;;;;;;;;;2.50;99.90;;;1.37;100.00;94988.13;10507521;28;1977;-65
2022/12/08 06:23:21;;;;;;;;;;;2.50;99.90;;;1.37;100.00;94988.13;10517576;28;2121;-66
2022/12/08 06:28:24;;;;;;;;;;;2.40;99.90;;;1.34;100.00;95000.03;10504157;28;1977;-66
2022/12/08 06:33:27;;;;;;;;;;;2.60;99.90;;;1.33;100.00;94995.72;10507876;28;1974;-66
2022/12/08 06:38:30;;;;;;;;;;;2.50;99.90;;;1.12;100.00;94996.38;10518875;28;1919;-66
2022/12/08 06:43:35;;;;;;;;;;;2.40;99.90;;;1.04;100.00;94995.69;10513172;28;1952;-65
2022/12/08 06:48:38;;;;;;;;;;;2.30;99.90;;;0.89;100.00;94991.91;10518886;28;2113;-65
2022/12/08 06:53:41;;;;;;;;;;;2.20;99.90;;;1.00;100.00;94999.84;10492883;28;1958;-69
2022/12/08 06:58:44;;;;;;;;;;;2.10;99.90;;;0.86;100.00;95000.31;10512039;28;2121;-66
2022/12/08 07:03:54;;;;;;;;;;;2.10;99.90;;;0.96;100.00;94993.41;10513160;28;1974;-65
2022/12/08 07:08:56;;;;;;;;;;;2.10;99.90;;;0.94;100.00;95000.75;10522759;28;2043;-66
2022/12/08 07:13:59;;;;;;;;;;;2.00;99.90;;;0.91;100.00;95003.88;10513477;28;1950;-66
2022/12/08 07:19:02;;;;;;;;;;;2.10;99.90;;;1.08;100.00;95006.59;10513449;28;1974;-66
2022/12/08 07:24:05;;;;;;;;;;;2.10;99.90;;;1.14;100.00;94995.09;10512881;28;1959;-73
2022/12/08 07:29:07;;;;;;;;;;;2.20;99.90;;;1.08;100.00;95006.59;10520254;28;1981;-73
2022/12/08 07:34:10;;;;;;;;;;;2.20;99.90;;;1.24;100.00;95007.75;10511358;28;2064;-74
2022/12/08 07:39:13;;;;;;;;;;;2.40;99.90;;;1.30;100.00;95004.16;10517680;28;1915;-73
2022/12/08 07:44:18;;;;;;;;;;;2.40;99.90;;;1.28;100.00;95009.69;10514952;28;1966;-76
2022/12/08 07:49:21;;;;;;;;;;;2.40;99.90;;;1.46;100.00;94998.13;10519053;28;1911;-75
2022/12/08 07:54:24;;;;;;;;;;;2.50;99.90;;;1.57;100.00;95005.22;10516213;28;2085;-74
2022/12/08 07:59:27;;;;;;;;;;;2.60;99.90;;;1.64;100.00;94999.78;10525537;28;2144;-75
2022/12/08 08:04:30;;;;;;;;;;;2.70;99.90;;;1.80;100.00;95011.47;10528996;28;1816;-72
2022/12/08 08:09:33;;;;;;;;;;;2.80;99.90;;;1.78;100.00;94990.53;10532828;28;1910;-74
2022/12/08 08:14:52;;;;;;;;;;;;;;;;;;;;;
2022/12/08 08:19:54;;;;;;;;;;;2.80;99.90;;;1.95;100.00;94992.41;10520707;28;1919;-77
2022/12/08 08:24:57;;;;;;;;;;;3.00;99.90;;;1.94;100.00;94999.53;10512444;28;1938;-74
2022/12/08 08:30:00;;;;;;;;;;;3.00;99.90;;;2.31;100.00;94997.25;10509966;28;2197;-75
2022/12/08 08:35:04;;;;;;;;;;;3.20;99.90;;;2.27;100.00;94992.66;10524281;28;1888;-75
2022/12/08 08:40:07;;;;;;;;;;;3.70;99.90;;;2.25;100.00;94984.16;10522628;28;2018;-76
2022/12/08 08:45:10;;;;;;;;;;;3.40;99.90;;;2.24;100.00;94987.84;10515074;28;2013;-75
2022/12/08 08:50:12;;;;;;;;;;;3.30;99.90;;;2.40;100.00;94990.50;10510424;28;2038;-73
2022/12/08 08:55:15;;;;;;;;;;;3.30;99.90;;;2.42;100.00;94995.59;10517667;28;1974;-73
2022/12/08 09:00:18;;;;;;;;;;;3.50;99.90;;;2.62;100.00;95005.69;10536171;28;1986;-74
2022/12/08 09:05:21;;;;;;;;;;;3.60;99.90;;;2.93;100.00;94991.03;10523637;28;1964;-74
2022/12/08 09:10:24;;;;;;;;;;;3.70;99.90;;;2.97;100.00;94987.63;10523919;28;2034;-73
2022/12/08 09:15:26;;;;;;;;;;;3.90;99.90;;;2.94;100.00;94995.28;10513167;28;1993;-73
2022/12/08 09:20:29;;;;;;;;;;;4.50;99.90;;;3.34;100.00;94983.56;10517710;28;2097;-74
2022/12/08 09:25:32;;;;;;;;;;;4.10;99.90;;;3.42;100.00;94983.13;10527228;28;2065;-75
2022/12/08 09:30:36;;;;;;;;;;;4.30;99.90;;;3.54;100.00;94975.84;10524295;28;1990;-74
2022/12/08 09:35:39;;;;;;;;;;;4.60;99.90;;;3.65;100.00;94961.63;10514879;28;2002;-73
2022/12/08 09:40:42;;;;;;;;;;;4.60;99.90;;;3.62;100.00;94962.09;10513279;28;1985;-75
2022/12/08 09:45:45;;;;;;;;;;;4.60;99.90;;;3.48;100.00;94960.88;10520657;28;1971;-77
2022/12/08 09:50:47;;;;;;;;;;;4.50;99.90;;;3.27;100.00;94956.41;10512409;28;1993;-72
2022/12/08 09:55:50;;;;;;;;;;;4.50;99.90;;;3.18;100.00;94950.69;10515260;28;1919;-73
2022/12/08 10:00:53;;;;;;;;;;;4.30;99.90;;;3.24;100.00;94939.91;10511685;28;2048;-73
2022/12/08 10:05:56;;;;;;;;;;;4.30;99.90;;;3.19;100.00;94934.53;10508024;28;2068;-72
2022/12/08 10:10:58;;;;;;;;;;;4.20;99.90;;;2.96;100.00;94932.91;10507731;28;1984;-72
2022/12/08 10:16:01;;;;;;;;;;;4.20;99.90;;;2.81;100.00;94926.63;10511917;28;1927;-73
2022/12/08 10:21:04;;;;;;;;;;;4.00;99.90;;;2.81;100.00;94924.78;10506517;28;1920;-76
2022/12/08 10:26:06;;;;;;;;;;;4.00;99.90;;;2.50;100.00;94917.44;10508881;28;1963;-76
2022/12/08 10:31:09;;;;;;;;;;;3.80;99.90;;;2.88;100.00;94909.47;10508915;28;1978;-76
2022/12/08 10:36:12;;;;;;;;;;;3.80;99.90;;;2.59;100.00;94908.00;10509003;28;1975;-76
2022/12/08 10:41:16;;;;;;;;;;;3.70;99.90;;;2.97;100.00;94897.34;10515634;28;1975;-76
2022/12/08 10:46:19;;;;;;;;;;;3.80;99.90;;;3.19;100.00;94884.09;10504206;28;1954;-75
2022/12/08 10:51:22;;;;;;;;;;;4.00;99.90;;;3.21;100.00;94881.97;10504285;28;2054;-74
2022/12/08 10:56:24;;;;;;;;;;;4.10;99.90;;;2.91;100.00;94881.59;10505479;28;1910;-73
2022/12/08 11:01:28;;;;;;;;;;;4.00;99.90;;;2.59;100.00;94884.91;10508005;28;1986;-73
2022/12/08 11:06:31;;;;;;;;;;;3.90;99.90;;;2.88;100.00;94876.81;10513306;28;1982;-72
2022/12/08 11:11:37;;;;;;;;;;;3.80;99.90;;;2.96;100.00;94868.41;10484425;28;2032;-73
2022/12/08 11:16:40;;;;;;;;;;;4.00;99.90;;;3.06;100.00;94851.81;10508080;28;1967;-73
2022/12/08 11:21:46;;;;;;;;;;;4.00;99.90;;;3.46;100.00;94851.41;10511662;28;1903;-73
2022/12/08 11:26:48;;;;;;;;;;;4.30;99.90;;;3.64;100.00;94843.06;10513963;28;1926;-71
2022/12/08 11:31:51;;;;;;;;;;;4.50;99.90;;;3.85;100.00;94843.25;10512321;28;1989;-73
2022/12/08 11:36:55;;;;;;;;;;;4.60;99.90;;;3.73;100.00;94830.91;10513133;28;1918;-71
2022/12/08 11:41:57;;;;;;;;;;;4.80;99.90;;;3.78;100.00;94822.19;10513694;28;2195;-72
2022/12/08 11:47:00;;;;;;;;;;;4.70;99.90;;;3.46;100.00;94819.53;10493726;28;1988;-71
2022/12/08 11:52:04;;;;;;;;;;;4.60;99.90;;;3.71;100.00;94817.09;10507947;28;1931;-72
2022/12/08 11:57:06;;;;;;;;;;;4.70;99.90;;;4.15;100.00;94811.56;10512280;28;1959;-75
2022/12/08 12:02:09;;;;;;;;;;;4.90;99.90;;;4.20;100.00;94819.56;10518397;28;1978;-75
2022/12/08 12:07:14;;;;;;;;;;;5.10;99.90;;;3.61;100.00;94808.22;10533598;28;1938;-76
2022/12/08 12:12:17;;;;;;;;;;;4.80;99.90;;;3.44;100.00;94805.69;10519562;28;1989;-75
2022/12/08 12:17:19;;;;;;;;;;;4.60;99.90;;;3.70;100.00;94802.19;10519431;28;1985;-77
2022/12/08 12:22:22;;;;;;;;;;;4.60;99.90;;;3.96;100.00;94792.56;10512124;28;1974;-73
2022/12/08 12:27:25;;;;;;;;;;;4.90;99.90;;;4.17;100.00;94792.66;10510117;28;1985;-75
2022/12/08 12:32:28;;;;;;;;;;;5.10;99.90;;;4.06;100.00;94791.81;10514606;28;1974;-78
2022/12/08 12:37:40;;;;;;;;;;;5.20;99.90;;;3.71;100.00;94789.72;10519112;28;1946;-72
2022/12/08 12:42:43;;;;;;;;;;;4.90;99.90;;;3.91;100.00;94789.06;10523981;28;1998;-72
2022/12/08 12:47:49;;;;;;;;;;;4.90;99.90;;;3.90;100.00;94772.31;10517159;28;1968;-70
2022/12/08 12:52:58;;;;;;;;;;;4.90;99.90;;;3.70;100.00;94777.47;10521382;28;1981;-70
2022/12/08 12:58:00;;;;;;;;;;;4.70;99.90;;;3.48;100.00;94783.66;10527378;28;1895;-70
2022/12/08 13:03:04;;;;;;;;;;;4.70;99.90;;;3.60;100.00;94772.06;10513008;28;2132;-74
2022/12/08 13:08:06;;;;;;;;;;;4.90;99.90;;;3.42;100.00;94770.59;10511816;28;2072;-74
2022/12/08 13:13:09;;;;;;;;;;;4.60;99.90;;;3.58;100.00;94768.88;10514780;28;2018;-74
2022/12/08 13:18:12;;;;;;;;;;;4.60;99.90;;;3.67;100.00;94762.81;10510277;28;2038;-76
2022/12/08 13:23:14;;;;;;;;;;;4.60;99.90;;;3.85;100.00;94752.84;10513981;28;1979;-75
2022/12/08 13:28:17;;;;;;;;;;;4.80;99.90;;;4.01;100.00;94751.91;10517295;28;1948;-73
2022/12/08 13:33:20;;;;;;;;;;;4.90;99.90;;;4.02;100.00;94754.31;10515146;28;2058;-73
2022/12/08 13:38:23;;;;;;;;;;;5.10;99.90;;;3.65;100.00;94750.84;10507544;28;1928;-73
2022/12/08 13:43:25;;;;;;;;;;;4.90;99.90;;;3.45;100.00;94748.84;10517649;28;1923;-74
2022/12/08 13:48:33;;;;;;;;;;;4.70;99.90;;;3.56;100.00;94744.41;10512563;28;1970;-76
2022/12/08 13:53:56;;;;;;;;;;;4.60;99.90;;;3.29;100.00;94747.13;10512406;28;1947;-73
2022/12/08 13:59:18;;;;;;;;;;;4.60;99.90;;;2.94;100.00;94743.88;10515184;28;1958;-75
2022/12/08 14:04:21;;;;;;;;;;;4.30;99.90;;;2.70;100.00;94755.84;10511131;28;2043;-77
2022/12/08 14:09:44;;;;;;;;;;;4.00;99.90;;;2.64;100.00;94757.63;10511033;28;1981;-77
2022/12/08 14:14:47;;;;;;;;;;;4.20;99.90;;;2.53;100.00;94769.16;10514879;28;1922;-75
2022/12/08 14:20:08;;;;;;;;;;;3.80;99.90;;;2.62;100.00;94770.34;10507808;28;1903;-74
2022/12/08 14:25:11;;;;;;;;;;;3.70;99.90;;;2.68;100.00;94769.38;10510518;28;1907;-74
2022/12/08 14:30:14;;;;;;;;;;;3.70;99.90;;;2.73;100.00;94760.63;10520472;28;1919;-72
2022/12/08 14:35:16;;;;;;;;;;;3.80;99.90;;;2.69;100.00;94765.66;10519347;28;1995;-72
2022/12/08 14:40:20;;;;;;;;;;;3.80;99.90;;;2.68;100.00;94766.72;10518266;28;1955;-72
2022/12/08 14:45:25;;;;;;;;;;;3.80;99.90;;;2.62;100.00;94754.44;10513427;28;2062;-67
2022/12/08 14:50:28;;;;;;;;;;;3.80;99.90;;;2.51;100.00;94750.06;10508765;28;2119;-67
2022/12/08 14:55:30;;;;;;;;;;;3.70;99.90;;;2.34;100.00;94755.41;10510429;28;2060;-66
2022/12/08 15:00:33;;;;;;;;;;;3.60;99.90;;;2.37;100.00;94754.94;10502457;28;2043;-66
2022/12/08 15:05:36;;;;;;;;;;;3.60;99.90;;;2.34;100.00;94752.78;10504811;28;2186;-67
2022/12/08 15:10:39;;;;;;;;;;;3.50;99.90;;;2.38;100.00;94750.44;10501449;28;2065;-67
2022/12/08 15:15:42;;;;;;;;;;;3.50;99.90;;;2.26;100.00;94757.72;10499675;28;1991;-66
2022/12/08 15:20:45;;;;;;;;;;;3.50;99.90;;;2.16;100.00;94751.25;10507506;28;1963;-66
2022/12/08 15:25:48;;;;;;;;;;;3.30;99.90;;;2.22;100.00;94761.88;10510002;28;1924;-67
2022/12/08 15:30:50;;;;;;;;;;;3.30;99.90;;;2.13;100.00;94761.53;10525937;28;1976;-66
2022/12/08 15:35:53;;;;;;;;;;;3.30;99.90;;;2.07;100.00;94767.81;10516489;28;2044;-66
2022/12/08 15:40:57;;;;;;;;;;;3.20;99.90;;;2.04;100.00;94766.47;10513136;28;2005;-74
2022/12/08 15:46:00;;;;;;;;;;;3.20;99.90;;;2.05;100.00;94778.66;10520595;28;1943;-71
2022/12/08 15:51:02;;;;;;;;;;;3.20;99.90;;;1.97;100.00;94765.81;10513225;28;1918;-77
2022/12/08 15:56:05;;;;;;;;;;;3.10;99.90;;;1.92;100.00;94771.06;10515988;28;1974;-77
2022/12/08 16:01:32;;;;;;;;;;;3.10;99.90;;;1.72;100.00;94776.03;10523289;28;1923;-77
2022/12/08 16:06:37;;;;;;;;;;;3.00;99.90;;;1.70;100.00;94765.69;10507666;28;1896;-71
2022/12/08 16:17:51;;;;;;;;;;;2.80;99.90;;;1.36;100.00;94772.84;10489366;28;2060;-71
2022/12/08 16:22:55;;;;;;;;;;;2.70;99.90;;;1.23;100.00;94773.16;10521932;28;2057;-72
2022/12/08 16:28:17;;;;;;;;;;;2.50;99.90;;;1.27;100.00;94771.63;10524510;28;1950;-76
2022/12/08 16:33:39;;;;;;;;;;;2.50;99.90;;;1.38;100.00;94772.59;10505921;28;2076;-72
2022/12/08 16:38:42;;;;;;;;;;;2.50;99.90;;;1.40;100.00;94758.09;10527659;28;2013;-73
2022/12/08 16:43:47;;;;;;;;;;;2.50;99.90;;;1.58;100.00;94752.53;10524179;28;1916;-75
2022/12/08 16:48:51;;;;;;;;;;;2.60;99.90;;;1.56;100.00;94754.63;10519949;28;2470;-73
2022/12/08 16:53:55;;;;;;;;;;;2.70;99.90;;;1.47;100.00;94750.00;10511272;28;2102;-80
2022/12/08 16:58:58;;;;;;;;;;;2.60;99.90;;;1.35;100.00;94755.38;10509934;28;2157;-73
2022/12/08 17:04:00;;;;;;;;;;;2.50;99.90;;;1.41;100.00;94751.75;10517414;28;2015;-70
2022/12/08 17:09:23;;;;;;;;;;;2.50;99.90;;;1.29;100.00;94756.31;10503128;28;1998;-68
2022/12/08 17:14:26;;;;;;;;;;;2.50;99.90;;;1.34;100.00;94751.13;10521795;28;1996;-68
2022/12/08 17:19:28;;;;;;;;;;;2.50;99.90;;;1.28;100.00;94754.72;10505058;28;1990;-69
2022/12/08 17:24:31;;;;;;;;;;;2.50;99.90;;;1.14;100.00;94745.47;10516289;28;1982;-68
2022/12/08 17:29:34;;;;;;;;;;;2.40;99.90;;;1.03;100.00;94742.69;10511336;28;2216;-67
2022/12/08 17:34:36;;;;;;;;;;;2.30;99.90;;;0.82;100.00;94735.41;10510835;28;2121;-69
2022/12/08 17:39:39;;;;;;;;;;;2.20;99.90;;;0.74;100.00;94733.16;10508292;28;2048;-67
2022/12/08 17:44:45;;;;;;;;;;;2.30;99.90;;;0.62;100.00;94727.91;10502355;28;2013;-71
2022/12/08 17:49:48;;;;;;;;;;;1.90;99.90;;;0.46;100.00;94742.72;10514711;28;2150;-71
2022/12/08 17:54:51;;;;;;;;;;;1.80;99.90;;;0.26;100.00;94739.69;10502495;28;2026;-68
2022/12/08 17:59:54;;;;;;;;;;;2.00;99.90;;;0.35;100.00;94732.97;10509607;28;2166;-69
2022/12/08 18:04:57;;;;;;;;;;;1.60;99.90;;;0.33;100.00;94743.00;10508503;28;2214;-68
2022/12/08 18:10:00;;;;;;;;;;;1.60;99.90;;;0.22;100.00;94743.81;10508134;28;2141;-68
2022/12/08 18:15:03;;;;;;;;;;;1.70;99.90;;;0.21;100.00;94742.22;10496992;28;2079;-68
2022/12/08 18:20:05;;;;;;;;;;;1.50;99.90;;;0.18;100.00;94740.81;10500972;28;2071;-68
2022/12/08 18:25:08;;;;;;;;;;;1.50;99.90;;;0.08;100.00;94737.19;10499975;28;2146;-68
2022/12/08 18:30:11;;;;;;;;;;;1.40;99.90;;;0.15;100.00;94738.66;10499059;28;2039;-68
2022/12/08 18:35:13;;;;;;;;;;;1.40;99.90;;;0.11;100.00;94732.22;10503531;28;2115;-68
2022/12/08 18:40:17;;;;;;;;;;;1.40;99.90;;;-0.07;100.00;94725.25;10505160;28;1975;-68
2022/12/08 18:45:20;;;;;;;;;;;1.60;99.90;;;-0.08;100.00;94731.56;10504188;28;2050;-68
2022/12/08 18:50:24;;;;;;;;;;;1.20;99.90;;;-0.11;100.00;94728.63;10502532;28;2133;-67
2022/12/08 18:55:27;;;;;;;;;;;1.50;99.90;;;-0.09;100.00;94716.75;10500582;28;2054;-68
2022/12/08 19:00:32;;;;;;;;;;;1.20;99.90;;;-0.14;100.00;94714.00;10501362;28;2174;-67
2022/12/08 19:05:35;;;;;;;;;;;;;;;-0.21;100.00;94733.66;10502510;28;2039;-67
2022/12/08 19:10:38;;;;;;;;;;;1.10;99.90;;;-0.31;100.00;94736.91;10496955;28;2122;-70
2022/12/08 19:15:40;;;;;;;;;;;1.00;99.90;;;-0.38;100.00;94730.91;10507752;28;2052;-69
2022/12/08 19:20:43;;;;;;;;;;;1.00;99.90;;;-0.30;100.00;94735.88;10494967;28;1973;-69
2022/12/08 19:25:45;;;;;;;;;;;0.90;99.90;;;-0.40;100.00;94730.34;10511776;28;2066;-69
2022/12/08 19:30:48;;;;;;;;;;;0.90;99.90;;;-0.47;100.00;94732.31;10512925;28;2181;-69
2022/12/08 19:35:51;;;;;;;;;;;0.80;99.90;;;-0.50;100.00;94740.69;10512883;28;2025;-71
2022/12/08 19:46:15;;;;;;;;;;;0.80;99.90;;;-0.64;100.00;94734.81;10497839;28;2125;-68
2022/12/08 19:51:19;;;;;;;;;;;0.70;99.90;;;-0.68;100.00;94720.50;10512841;28;2010;-68
2022/12/08 19:56:21;;;;;;;;;;;0.70;99.90;;;-0.77;100.00;94721.84;10517608;28;2022;-67
2022/12/08 20:01:24;;;;;;;;;;;0.60;99.90;;;-0.90;100.00;94733.44;10517470;28;2041;-66
2022/12/08 20:06:27;;;;;;;;;;;0.40;99.90;;;-0.76;100.00;94740.13;10532353;28;2059;-66
2022/12/08 20:11:30;;;;;;;;;;;0.40;99.90;;;-0.87;100.00;94730.34;10529808;28;1517;-67
2022/12/08 20:16:42;;;;;;;;;;;0.40;99.90;;;-0.95;100.00;94717.50;10513084;28;2001;-66
2022/12/08 20:21:45;;;;;;;;;;;0.40;99.90;;;-0.88;100.00;94715.56;10513766;28;2119;-68
2022/12/08 20:26:48;;;;;;;;;;;0.40;99.90;;;-1.02;100.00;94724.69;10508223;28;2062;-68
2022/12/08 20:31:51;;;;;;;;;;;0.40;99.90;;;-1.05;100.00;94730.44;10499880;28;2095;-67
2022/12/08 20:36:55;;;;;;;;;;;0.30;99.90;;;-1.07;100.00;94719.31;10510476;28;2162;-66
2022/12/08 20:41:58;;;;;;;;;;;0.30;99.90;;;-1.14;100.00;94725.50;10507286;28;2027;-67
2022/12/08 20:47:02;;;;;;;;;;;0.20;99.90;;;-1.31;100.00;94718.44;10510757;28;2152;-66
2022/12/08 20:52:05;;;;;;;;;;;0.20;99.90;;;-1.28;100.00;94718.78;10507635;28;2073;-67
2022/12/08 20:57:07;;;;;;;;;;;0.00;99.90;;;-1.16;100.00;94716.97;10504606;28;2041;-66
2022/12/08 21:02:10;;;;;;;;;;;0.20;99.90;;;-1.07;100.00;94716.69;10517112;28;1951;-66
2022/12/08 21:07:13;;;;;;;;;;;0.20;99.90;;;-1.07;100.00;94711.41;10515702;28;2009;-66
2022/12/08 21:12:16;;;;;;;;;;;0.20;99.90;;;-1.07;100.00;94706.13;10525921;28;1923;-68
2022/12/08 21:17:19;;;;;;;;;;;0.20;99.90;;;-1.05;100.00;94696.13;10531758;28;2157;-66
2022/12/08 21:22:22;;;;;;;;;;;0.20;99.90;;;-1.17;100.00;94694.28;10518025;28;1984;-66
2022/12/08 21:27:24;;;;;;;;;;;0.10;99.90;;;-1.29;100.00;94698.72;10525222;28;2188;-66
2022/12/08 21:32:27;;;;;;;;;;;0.10;99.90;;;-1.34;100.00;94697.78;10533837;28;2205;-67
2022/12/08 21:37:33;;;;;;;;;;;0.00;99.90;;;-1.35;100.00;94691.72;10518276;28;1996;-68
2022/12/08 21:42:45;;;;;;;;;;;-0.10;99.90;;;-1.50;100.00;94693.97;10518164;28;2084;-65
2022/12/08 21:47:48;;;;;;;;;;;-0.10;99.90;;;-1.48;100.00;94702.47;10527599;28;1974;-67
2022/12/08 21:52:52;;;;;;;;;;;-0.20;99.90;;;-1.39;100.00;94711.66;10524290;28;2032;-67
2022/12/08 21:57:55;;;;;;;;;;;-0.10;99.90;;;-1.48;100.00;94715.63;10515871;28;2074;-67
2022/12/08 22:02:58;;;;;;;;;;;0.20;99.90;;;-1.46;100.00;94706.50;10527407;28;2287;-66
2022/12/08 22:08:01;;;;;;;;;;;-0.20;99.90;;;-1.39;100.00;94704.56;10510181;28;1974;-66
2022/12/08 22:13:13;;;;;;;;;;;0.40;99.90;;;-1.29;100.00;94701.38;10522635;28;1943;-66
2022/12/08 22:18:17;;;;;;;;;;;0.00;99.90;;;-1.18;100.00;94710.34;10515414;28;2001;-68
2022/12/08 22:23:20;;;;;;;;;;;0.00;99.90;;;-1.07;100.00;94704.28;10509024;28;2083;-69
2022/12/08 22:28:23;;;;;;;;;;;0.10;99.90;;;-0.94;100.00;94687.44;10505984;28;2124;-68
2022/12/08 22:33:26;;;;;;;;;;;0.20;99.90;;;-0.88;100.00;94683.91;10497438;28;1973;-69
2022/12/08 22:38:29;;;;;;;;;;;0.30;99.90;;;-0.85;100.00;94683.41;10509389;28;2024;-67
2022/12/08 22:43:32;;;;;;;;;;;0.40;99.90;;;-0.75;100.00;94685.50;10512047;28;2161;-67
2022/12/08 22:48:34;;;;;;;;;;;0.40;99.90;;;-0.65;100.00;94675.97;10516567;28;2023;-69
2022/12/08 22:53:37;;;;;;;;;;;0.50;99.90;;;-0.62;100.00;94661.53;10515906;28;2196;-70
2022/12/08 22:58:40;;;;;;;;;;;0.60;99.90;;;-0.75;100.00;94654.63;10513595;28;2064;-68
2022/12/08 23:03:43;;;;;;;;;;;0.50;99.90;;;-0.97;100.00;94674.69;10529350;28;2035;-67
2022/12/08 23:08:46;;;;;;;;;;;0.40;99.90;;;-1.10;100.00;94671.25;10540482;28;1958;-73
2022/12/08 23:13:49;;;;;;;;;;;0.30;99.90;;;-1.09;100.00;94656.22;10523255;28;2195;-73
2022/12/08 23:18:52;;;;;;;;;;;0.20;99.90;;;-1.11;100.00;94666.19;10520042;28;2173;-68
2022/12/08 23:23:55;;;;;;;;;;;0.20;99.90;;;-1.10;100.00;94663.34;10505317;28;2299;-67
2022/12/08 23:28:57;;;;;;;;;;;0.10;99.90;;;-0.96;100.00;94663.09;10502483;28;2130;-67
2022/12/08 23:34:00;;;;;;;;;;;0.10;99.90;;;-0.84;100.00;94638.34;10501929;28;1971;-67
2022/12/08 23:39:03;;;;;;;;;;;0.20;99.90;;;-0.85;100.00;94652.56;10496942;28;2079;-67
2022/12/08 23:44:05;;;;;;;;;;;0.30;99.90;;;-0.79;100.00;94623.66;10501371;28;2086;-67